sensor_id;sensor_type;location;lat;lon;timestamp;P1;durP1;ratioP1;P2;durP2;ratioP2
8562;SDS011;16392;52.508;13.468;2022-11-20T00:00:41;354.57;;;60.47;;
8562;SDS011;16392;52.508;13.468;2022-11-20T00:03:10;356.33;;;62.57;;
8562;SDS011;16392;52.508;13.468;2022-11-20T00:05:38;353.80;;;60.13;;
8562;SDS011;16392;52.508;13.468;2022-11-20T00:08:16;352.33;;;60.33;;
8562;SDS011;16392;52.508;13.468;2022-11-20T00:10:46;353.37;;;64.23;;
8562;SDS011;16392;52.508;13.468;2022-11-20T00:13:19;355.60;;;62.43;;
8562;SDS011;16392;52.508;13.468;2022-11-20T00:16:01;354.00;;;60.70;;
8562;SDS011;16392;52.508;13.468;2022-11-20T00:18:32;351.70;;;61.33;;
8562;SDS011;16392;52.508;13.468;2022-11-20T00:21:17;351.70;;;59.40;;
8562;SDS011;16392;52.508;13.468;2022-11-20T00:24:00;349.67;;;59.87;;
8562;SDS011;16392;52.508;13.468;2022-11-20T00:26:35;351.90;;;60.70;;
8562;SDS011;16392;52.508;13.468;2022-11-20T00:29:03;354.53;;;60.63;;
8562;SDS011;16392;52.508;13.468;2022-11-20T00:31:36;353.70;;;61.10;;
8562;SDS011;16392;52.508;13.468;2022-11-20T00:34:06;351.00;;;59.57;;
8562;SDS011;16392;52.508;13.468;2022-11-20T00:36:41;354.03;;;60.13;;
8562;SDS011;16392;52.508;13.468;2022-11-20T00:39:08;355.13;;;60.97;;
8562;SDS011;16392;52.508;13.468;2022-11-20T00:41:44;353.47;;;62.43;;
8562;SDS011;16392;52.508;13.468;2022-11-20T00:44:23;353.83;;;59.77;;
8562;SDS011;16392;52.508;13.468;2022-11-20T00:46:55;351.67;;;61.40;;
8562;SDS011;16392;52.508;13.468;2022-11-20T00:49:23;351.43;;;60.60;;
8562;SDS011;16392;52.508;13.468;2022-11-20T00:51:54;354.30;;;60.17;;
8562;SDS011;16392;52.508;13.468;2022-11-20T00:54:23;353.50;;;60.70;;
8562;SDS011;16392;52.508;13.468;2022-11-20T00:56:53;355.00;;;60.03;;
8562;SDS011;16392;52.508;13.468;2022-11-20T00:59:21;356.83;;;61.30;;
8562;SDS011;16392;52.508;13.468;2022-11-20T01:01:57;356.70;;;62.20;;
8562;SDS011;16392;52.508;13.468;2022-11-20T01:04:33;354.57;;;61.50;;
8562;SDS011;16392;52.508;13.468;2022-11-20T01:07:02;355.20;;;60.37;;
8562;SDS011;16392;52.508;13.468;2022-11-20T01:09:37;356.23;;;62.17;;
8562;SDS011;16392;52.508;13.468;2022-11-20T01:12:07;353.90;;;60.07;;
8562;SDS011;16392;52.508;13.468;2022-11-20T01:14:43;356.00;;;61.57;;
8562;SDS011;16392;52.508;13.468;2022-11-20T01:17:15;352.60;;;59.40;;
8562;SDS011;16392;52.508;13.468;2022-11-20T01:19:48;353.23;;;61.47;;
8562;SDS011;16392;52.508;13.468;2022-11-20T01:22:26;350.97;;;60.17;;
8562;SDS011;16392;52.508;13.468;2022-11-20T01:24:56;355.17;;;64.77;;
8562;SDS011;16392;52.508;13.468;2022-11-20T01:27:23;355.60;;;62.67;;
8562;SDS011;16392;52.508;13.468;2022-11-20T01:29:54;354.03;;;62.80;;
8562;SDS011;16392;52.508;13.468;2022-11-20T01:32:26;354.77;;;65.50;;
8562;SDS011;16392;52.508;13.468;2022-11-20T01:35:27;351.97;;;59.67;;
8562;SDS011;16392;52.508;13.468;2022-11-20T01:37:58;353.10;;;60.30;;
8562;SDS011;16392;52.508;13.468;2022-11-20T01:40:38;352.67;;;60.80;;
8562;SDS011;16392;52.508;13.468;2022-11-20T01:43:12;355.77;;;65.03;;
8562;SDS011;16392;52.508;13.468;2022-11-20T01:46:05;354.57;;;62.30;;
8562;SDS011;16392;52.508;13.468;2022-11-20T01:49:03;354.43;;;62.13;;
8562;SDS011;16392;52.508;13.468;2022-11-20T01:51:38;354.40;;;59.90;;
8562;SDS011;16392;52.508;13.468;2022-11-20T01:54:16;351.20;;;59.70;;
8562;SDS011;16392;52.508;13.468;2022-11-20T01:56:48;354.27;;;61.27;;
8562;SDS011;16392;52.508;13.468;2022-11-20T01:59:22;352.47;;;60.47;;
8562;SDS011;16392;52.508;13.468;2022-11-20T02:01:58;351.20;;;60.07;;
8562;SDS011;16392;52.508;13.468;2022-11-20T02:04:29;353.37;;;61.37;;
8562;SDS011;16392;52.508;13.468;2022-11-20T02:07:04;352.57;;;59.70;;
8562;SDS011;16392;52.508;13.468;2022-11-20T02:09:50;352.40;;;61.43;;
8562;SDS011;16392;52.508;13.468;2022-11-20T02:12:20;351.23;;;59.77;;
8562;SDS011;16392;52.508;13.468;2022-11-20T02:15:08;349.60;;;61.23;;
8562;SDS011;16392;52.508;13.468;2022-11-20T02:17:39;349.20;;;60.47;;
8562;SDS011;16392;52.508;13.468;2022-11-20T02:20:13;351.17;;;60.53;;
8562;SDS011;16392;52.508;13.468;2022-11-20T02:22:44;351.87;;;62.30;;
8562;SDS011;16392;52.508;13.468;2022-11-20T02:25:21;353.40;;;60.80;;
8562;SDS011;16392;52.508;13.468;2022-11-20T02:27:51;363.03;;;66.03;;
8562;SDS011;16392;52.508;13.468;2022-11-20T02:30:21;352.83;;;64.47;;
8562;SDS011;16392;52.508;13.468;2022-11-20T02:32:55;352.60;;;63.57;;
8562;SDS011;16392;52.508;13.468;2022-11-20T02:35:40;349.60;;;61.73;;
8562;SDS011;16392;52.508;13.468;2022-11-20T02:38:15;350.23;;;59.60;;
8562;SDS011;16392;52.508;13.468;2022-11-20T02:40:44;351.20;;;60.63;;
8562;SDS011;16392;52.508;13.468;2022-11-20T02:43:26;350.10;;;59.20;;
8562;SDS011;16392;52.508;13.468;2022-11-20T02:46:00;348.93;;;58.73;;
8562;SDS011;16392;52.508;13.468;2022-11-20T02:48:30;353.33;;;64.43;;
8562;SDS011;16392;52.508;13.468;2022-11-20T02:51:01;351.30;;;60.10;;
8562;SDS011;16392;52.508;13.468;2022-11-20T02:53:38;352.47;;;59.47;;
8562;SDS011;16392;52.508;13.468;2022-11-20T02:56:12;351.70;;;61.40;;
8562;SDS011;16392;52.508;13.468;2022-11-20T02:58:39;352.27;;;61.70;;
8562;SDS011;16392;52.508;13.468;2022-11-20T03:01:06;353.10;;;63.90;;
8562;SDS011;16392;52.508;13.468;2022-11-20T03:03:32;356.40;;;62.27;;
8562;SDS011;16392;52.508;13.468;2022-11-20T03:05:59;351.60;;;62.17;;
8562;SDS011;16392;52.508;13.468;2022-11-20T03:08:26;355.73;;;63.07;;
8562;SDS011;16392;52.508;13.468;2022-11-20T03:10:53;352.33;;;62.10;;
8562;SDS011;16392;52.508;13.468;2022-11-20T03:13:21;350.90;;;61.50;;
8562;SDS011;16392;52.508;13.468;2022-11-20T03:15:47;352.40;;;61.93;;
8562;SDS011;16392;52.508;13.468;2022-11-20T03:18:14;350.50;;;60.10;;
8562;SDS011;16392;52.508;13.468;2022-11-20T03:20:41;350.13;;;60.37;;
8562;SDS011;16392;52.508;13.468;2022-11-20T03:23:07;349.53;;;59.67;;
8562;SDS011;16392;52.508;13.468;2022-11-20T03:25:34;351.43;;;62.30;;
8562;SDS011;16392;52.508;13.468;2022-11-20T03:28:01;351.03;;;59.83;;
8562;SDS011;16392;52.508;13.468;2022-11-20T03:30:29;351.90;;;60.63;;
8562;SDS011;16392;52.508;13.468;2022-11-20T03:32:55;356.67;;;66.67;;
8562;SDS011;16392;52.508;13.468;2022-11-20T03:35:22;353.33;;;60.67;;
8562;SDS011;16392;52.508;13.468;2022-11-20T03:37:48;351.83;;;61.00;;
8562;SDS011;16392;52.508;13.468;2022-11-20T03:40:15;350.70;;;59.33;;
8562;SDS011;16392;52.508;13.468;2022-11-20T03:42:42;351.73;;;59.37;;
8562;SDS011;16392;52.508;13.468;2022-11-20T03:45:12;353.03;;;61.03;;
8562;SDS011;16392;52.508;13.468;2022-11-20T03:47:42;350.93;;;60.17;;
8562;SDS011;16392;52.508;13.468;2022-11-20T03:50:11;350.97;;;59.03;;
8562;SDS011;16392;52.508;13.468;2022-11-20T03:52:39;351.10;;;61.73;;
8562;SDS011;16392;52.508;13.468;2022-11-20T03:55:06;350.43;;;59.37;;
8562;SDS011;16392;52.508;13.468;2022-11-20T03:57:33;351.00;;;59.60;;
8562;SDS011;16392;52.508;13.468;2022-11-20T04:00:00;352.43;;;67.17;;
8562;SDS011;16392;52.508;13.468;2022-11-20T04:02:29;348.37;;;59.47;;
8562;SDS011;16392;52.508;13.468;2022-11-20T04:04:56;351.43;;;62.70;;
8562;SDS011;16392;52.508;13.468;2022-11-20T04:07:23;348.73;;;61.27;;
8562;SDS011;16392;52.508;13.468;2022-11-20T04:09:50;349.90;;;62.60;;
8562;SDS011;16392;52.508;13.468;2022-11-20T04:12:16;346.90;;;60.80;;
8562;SDS011;16392;52.508;13.468;2022-11-20T04:14:43;349.27;;;61.70;;
8562;SDS011;16392;52.508;13.468;2022-11-20T04:17:10;349.33;;;60.77;;
8562;SDS011;16392;52.508;13.468;2022-11-20T04:19:36;348.27;;;59.50;;
8562;SDS011;16392;52.508;13.468;2022-11-20T04:22:04;351.10;;;60.13;;
8562;SDS011;16392;52.508;13.468;2022-11-20T04:24:31;349.67;;;65.87;;
8562;SDS011;16392;52.508;13.468;2022-11-20T04:26:57;349.80;;;61.03;;
8562;SDS011;16392;52.508;13.468;2022-11-20T04:29:24;344.43;;;60.07;;
8562;SDS011;16392;52.508;13.468;2022-11-20T04:31:52;347.50;;;62.93;;
8562;SDS011;16392;52.508;13.468;2022-11-20T04:34:18;347.43;;;60.83;;
8562;SDS011;16392;52.508;13.468;2022-11-20T04:36:45;348.07;;;59.37;;
8562;SDS011;16392;52.508;13.468;2022-11-20T04:39:13;347.40;;;60.60;;
8562;SDS011;16392;52.508;13.468;2022-11-20T04:41:41;348.43;;;59.40;;
8562;SDS011;16392;52.508;13.468;2022-11-20T04:44:08;348.47;;;60.47;;
8562;SDS011;16392;52.508;13.468;2022-11-20T04:46:35;345.67;;;61.20;;
8562;SDS011;16392;52.508;13.468;2022-11-20T04:49:03;345.73;;;60.20;;
8562;SDS011;16392;52.508;13.468;2022-11-20T04:51:32;350.60;;;60.10;;
8562;SDS011;16392;52.508;13.468;2022-11-20T04:54:00;348.53;;;60.97;;
8562;SDS011;16392;52.508;13.468;2022-11-20T04:56:28;349.13;;;63.40;;
8562;SDS011;16392;52.508;13.468;2022-11-20T04:58:55;346.13;;;60.80;;
8562;SDS011;16392;52.508;13.468;2022-11-20T05:01:25;346.97;;;59.13;;
8562;SDS011;16392;52.508;13.468;2022-11-20T05:03:53;346.20;;;58.73;;
8562;SDS011;16392;52.508;13.468;2022-11-20T05:06:20;349.30;;;61.83;;
8562;SDS011;16392;52.508;13.468;2022-11-20T05:08:47;345.97;;;60.03;;
8562;SDS011;16392;52.508;13.468;2022-11-20T05:11:15;350.33;;;66.00;;
8562;SDS011;16392;52.508;13.468;2022-11-20T05:13:44;347.70;;;59.20;;
8562;SDS011;16392;52.508;13.468;2022-11-20T05:16:11;347.77;;;61.27;;
8562;SDS011;16392;52.508;13.468;2022-11-20T05:18:39;347.70;;;63.03;;
8562;SDS011;16392;52.508;13.468;2022-11-20T05:21:07;351.90;;;62.90;;
8562;SDS011;16392;52.508;13.468;2022-11-20T05:23:34;350.37;;;60.67;;
8562;SDS011;16392;52.508;13.468;2022-11-20T05:26:02;348.90;;;60.83;;
8562;SDS011;16392;52.508;13.468;2022-11-20T05:28:31;346.57;;;59.60;;
8562;SDS011;16392;52.508;13.468;2022-11-20T05:31:04;350.20;;;63.30;;
8562;SDS011;16392;52.508;13.468;2022-11-20T05:33:32;349.67;;;62.63;;
8562;SDS011;16392;52.508;13.468;2022-11-20T05:36:00;348.03;;;62.37;;
8562;SDS011;16392;52.508;13.468;2022-11-20T05:38:26;349.37;;;60.53;;
8562;SDS011;16392;52.508;13.468;2022-11-20T05:40:53;348.13;;;61.90;;
8562;SDS011;16392;52.508;13.468;2022-11-20T05:43:20;349.03;;;59.40;;
8562;SDS011;16392;52.508;13.468;2022-11-20T05:45:53;350.37;;;60.70;;
8562;SDS011;16392;52.508;13.468;2022-11-20T05:48:22;348.77;;;61.47;;
8562;SDS011;16392;52.508;13.468;2022-11-20T05:50:48;348.67;;;61.50;;
8562;SDS011;16392;52.508;13.468;2022-11-20T05:53:15;350.23;;;61.30;;
8562;SDS011;16392;52.508;13.468;2022-11-20T05:55:42;349.73;;;59.17;;
8562;SDS011;16392;52.508;13.468;2022-11-20T05:58:08;351.27;;;63.03;;
8562;SDS011;16392;52.508;13.468;2022-11-20T06:00:35;350.57;;;61.70;;
8562;SDS011;16392;52.508;13.468;2022-11-20T06:03:03;350.43;;;61.10;;
8562;SDS011;16392;52.508;13.468;2022-11-20T06:05:34;348.87;;;59.30;;
8562;SDS011;16392;52.508;13.468;2022-11-20T06:08:00;346.80;;;60.43;;
8562;SDS011;16392;52.508;13.468;2022-11-20T06:10:27;346.57;;;59.73;;
8562;SDS011;16392;52.508;13.468;2022-11-20T06:12:56;348.80;;;61.13;;
8562;SDS011;16392;52.508;13.468;2022-11-20T06:15:23;348.90;;;60.87;;
8562;SDS011;16392;52.508;13.468;2022-11-20T06:17:51;350.37;;;63.83;;
8562;SDS011;16392;52.508;13.468;2022-11-20T06:20:18;348.57;;;61.63;;
8562;SDS011;16392;52.508;13.468;2022-11-20T06:22:46;349.43;;;61.17;;
8562;SDS011;16392;52.508;13.468;2022-11-20T06:25:13;346.07;;;60.63;;
8562;SDS011;16392;52.508;13.468;2022-11-20T06:27:40;346.70;;;60.37;;
8562;SDS011;16392;52.508;13.468;2022-11-20T06:30:07;349.77;;;62.10;;
8562;SDS011;16392;52.508;13.468;2022-11-20T06:32:35;350.43;;;63.23;;
8562;SDS011;16392;52.508;13.468;2022-11-20T06:35:01;348.23;;;61.87;;
8562;SDS011;16392;52.508;13.468;2022-11-20T06:37:29;349.03;;;59.20;;
8562;SDS011;16392;52.508;13.468;2022-11-20T06:39:57;349.33;;;61.00;;
8562;SDS011;16392;52.508;13.468;2022-11-20T06:42:24;346.57;;;61.23;;
8562;SDS011;16392;52.508;13.468;2022-11-20T06:44:50;350.63;;;61.87;;
8562;SDS011;16392;52.508;13.468;2022-11-20T06:47:17;353.10;;;74.00;;
8562;SDS011;16392;52.508;13.468;2022-11-20T06:49:44;352.27;;;62.03;;
8562;SDS011;16392;52.508;13.468;2022-11-20T06:52:11;349.40;;;61.87;;
8562;SDS011;16392;52.508;13.468;2022-11-20T06:54:39;353.87;;;66.90;;
8562;SDS011;16392;52.508;13.468;2022-11-20T06:57:07;350.70;;;62.17;;
8562;SDS011;16392;52.508;13.468;2022-11-20T06:59:34;348.03;;;60.13;;
8562;SDS011;16392;52.508;13.468;2022-11-20T07:02:01;348.47;;;60.23;;
8562;SDS011;16392;52.508;13.468;2022-11-20T07:04:28;349.90;;;61.47;;
8562;SDS011;16392;52.508;13.468;2022-11-20T07:06:55;350.90;;;62.87;;
8562;SDS011;16392;52.508;13.468;2022-11-20T07:09:21;353.10;;;62.37;;
8562;SDS011;16392;52.508;13.468;2022-11-20T07:11:49;352.40;;;66.87;;
8562;SDS011;16392;52.508;13.468;2022-11-20T07:14:29;350.60;;;59.90;;
8562;SDS011;16392;52.508;13.468;2022-11-20T07:16:56;350.83;;;62.70;;
8562;SDS011;16392;52.508;13.468;2022-11-20T07:19:22;350.00;;;62.10;;
8562;SDS011;16392;52.508;13.468;2022-11-20T07:21:49;351.40;;;63.57;;
8562;SDS011;16392;52.508;13.468;2022-11-20T07:24:15;347.47;;;60.07;;
8562;SDS011;16392;52.508;13.468;2022-11-20T07:26:42;353.27;;;61.53;;
8562;SDS011;16392;52.508;13.468;2022-11-20T07:29:11;350.17;;;60.97;;
8562;SDS011;16392;52.508;13.468;2022-11-20T07:31:39;348.97;;;62.63;;
8562;SDS011;16392;52.508;13.468;2022-11-20T07:34:06;352.30;;;63.23;;
8562;SDS011;16392;52.508;13.468;2022-11-20T07:36:32;351.57;;;63.70;;
8562;SDS011;16392;52.508;13.468;2022-11-20T07:39:01;351.83;;;62.37;;
8562;SDS011;16392;52.508;13.468;2022-11-20T07:41:28;350.03;;;62.60;;
8562;SDS011;16392;52.508;13.468;2022-11-20T07:43:55;350.00;;;61.50;;
8562;SDS011;16392;52.508;13.468;2022-11-20T07:46:22;352.73;;;64.70;;
8562;SDS011;16392;52.508;13.468;2022-11-20T07:48:53;372.27;;;68.13;;
8562;SDS011;16392;52.508;13.468;2022-11-20T07:51:19;351.50;;;63.33;;
8562;SDS011;16392;52.508;13.468;2022-11-20T07:53:46;346.00;;;59.97;;
8562;SDS011;16392;52.508;13.468;2022-11-20T07:56:13;349.53;;;60.40;;
8562;SDS011;16392;52.508;13.468;2022-11-20T07:58:39;350.27;;;62.03;;
8562;SDS011;16392;52.508;13.468;2022-11-20T08:01:06;349.10;;;61.53;;
8562;SDS011;16392;52.508;13.468;2022-11-20T08:03:34;348.10;;;62.83;;
8562;SDS011;16392;52.508;13.468;2022-11-20T08:06:04;349.53;;;65.07;;
8562;SDS011;16392;52.508;13.468;2022-11-20T08:08:31;349.37;;;61.13;;
8562;SDS011;16392;52.508;13.468;2022-11-20T08:10:58;355.03;;;64.80;;
8562;SDS011;16392;52.508;13.468;2022-11-20T08:13:46;346.53;;;62.80;;
8562;SDS011;16392;52.508;13.468;2022-11-20T08:16:30;347.30;;;63.13;;
8562;SDS011;16392;52.508;13.468;2022-11-20T08:18:57;348.40;;;60.33;;
8562;SDS011;16392;52.508;13.468;2022-11-20T08:21:25;350.97;;;61.40;;
8562;SDS011;16392;52.508;13.468;2022-11-20T08:23:52;352.87;;;61.80;;
8562;SDS011;16392;52.508;13.468;2022-11-20T08:26:21;351.93;;;61.83;;
8562;SDS011;16392;52.508;13.468;2022-11-20T08:28:48;353.90;;;64.57;;
8562;SDS011;16392;52.508;13.468;2022-11-20T08:31:15;353.47;;;64.17;;
8562;SDS011;16392;52.508;13.468;2022-11-20T08:33:41;353.77;;;65.40;;
8562;SDS011;16392;52.508;13.468;2022-11-20T08:36:08;354.67;;;63.13;;
8562;SDS011;16392;52.508;13.468;2022-11-20T08:38:36;351.80;;;61.50;;
8562;SDS011;16392;52.508;13.468;2022-11-20T08:41:03;354.00;;;60.70;;
8562;SDS011;16392;52.508;13.468;2022-11-20T08:43:48;357.63;;;67.90;;
8562;SDS011;16392;52.508;13.468;2022-11-20T08:46:15;354.27;;;62.50;;
8562;SDS011;16392;52.508;13.468;2022-11-20T08:48:44;351.03;;;60.33;;
8562;SDS011;16392;52.508;13.468;2022-11-20T08:51:11;355.67;;;64.63;;
8562;SDS011;16392;52.508;13.468;2022-11-20T08:53:39;353.93;;;61.90;;
8562;SDS011;16392;52.508;13.468;2022-11-20T08:56:06;355.23;;;66.07;;
8562;SDS011;16392;52.508;13.468;2022-11-20T08:58:34;355.67;;;63.83;;
8562;SDS011;16392;52.508;13.468;2022-11-20T09:01:01;351.80;;;63.23;;
8562;SDS011;16392;52.508;13.468;2022-11-20T09:03:28;355.07;;;61.23;;
8562;SDS011;16392;52.508;13.468;2022-11-20T09:05:56;352.47;;;62.03;;
8562;SDS011;16392;52.508;13.468;2022-11-20T09:08:24;354.00;;;61.77;;
8562;SDS011;16392;52.508;13.468;2022-11-20T09:10:52;355.53;;;63.77;;
8562;SDS011;16392;52.508;13.468;2022-11-20T09:13:20;356.33;;;61.47;;
8562;SDS011;16392;52.508;13.468;2022-11-20T09:15:51;359.60;;;66.40;;
8562;SDS011;16392;52.508;13.468;2022-11-20T09:18:19;355.47;;;62.83;;
8562;SDS011;16392;52.508;13.468;2022-11-20T09:20:46;358.67;;;63.80;;
8562;SDS011;16392;52.508;13.468;2022-11-20T09:23:12;357.97;;;63.30;;
8562;SDS011;16392;52.508;13.468;2022-11-20T09:25:39;357.33;;;62.30;;
8562;SDS011;16392;52.508;13.468;2022-11-20T09:28:07;358.60;;;63.53;;
8562;SDS011;16392;52.508;13.468;2022-11-20T09:30:35;360.03;;;62.77;;
8562;SDS011;16392;52.508;13.468;2022-11-20T09:33:03;358.40;;;63.93;;
8562;SDS011;16392;52.508;13.468;2022-11-20T09:35:30;360.07;;;62.63;;
8562;SDS011;16392;52.508;13.468;2022-11-20T09:37:57;356.97;;;62.83;;
8562;SDS011;16392;52.508;13.468;2022-11-20T09:40:24;361.93;;;63.17;;
8562;SDS011;16392;52.508;13.468;2022-11-20T09:42:54;361.33;;;64.93;;
8562;SDS011;16392;52.508;13.468;2022-11-20T09:45:28;358.67;;;64.13;;
8562;SDS011;16392;52.508;13.468;2022-11-20T09:50:57;360.03;;;65.13;;
8562;SDS011;16392;52.508;13.468;2022-11-20T09:53:35;359.10;;;60.87;;
8562;SDS011;16392;52.508;13.468;2022-11-20T09:56:19;362.53;;;68.53;;
8562;SDS011;16392;52.508;13.468;2022-11-20T09:58:47;360.80;;;64.30;;
8562;SDS011;16392;52.508;13.468;2022-11-20T10:01:18;360.13;;;65.80;;
8562;SDS011;16392;52.508;13.468;2022-11-20T10:03:52;359.70;;;64.77;;
8562;SDS011;16392;52.508;13.468;2022-11-20T10:06:24;362.47;;;64.70;;
8562;SDS011;16392;52.508;13.468;2022-11-20T10:09:03;365.37;;;69.47;;
8562;SDS011;16392;52.508;13.468;2022-11-20T10:11:42;359.90;;;61.60;;
8562;SDS011;16392;52.508;13.468;2022-11-20T10:14:16;362.17;;;65.20;;
8562;SDS011;16392;52.508;13.468;2022-11-20T10:16:56;360.97;;;60.80;;
8562;SDS011;16392;52.508;13.468;2022-11-20T10:22:32;362.67;;;63.37;;
8562;SDS011;16392;52.508;13.468;2022-11-20T10:25:10;365.43;;;64.33;;
8562;SDS011;16392;52.508;13.468;2022-11-20T10:30:42;364.63;;;65.10;;
8562;SDS011;16392;52.508;13.468;2022-11-20T10:33:15;363.67;;;62.73;;
8562;SDS011;16392;52.508;13.468;2022-11-20T10:35:45;365.43;;;65.23;;
8562;SDS011;16392;52.508;13.468;2022-11-20T10:38:19;363.33;;;63.37;;
8562;SDS011;16392;52.508;13.468;2022-11-20T10:40:48;360.73;;;64.00;;
8562;SDS011;16392;52.508;13.468;2022-11-20T10:43:21;360.97;;;64.43;;
8562;SDS011;16392;52.508;13.468;2022-11-20T10:45:56;361.10;;;63.23;;
8562;SDS011;16392;52.508;13.468;2022-11-20T10:48:26;360.53;;;65.23;;
8562;SDS011;16392;52.508;13.468;2022-11-20T10:50:56;362.50;;;70.13;;
8562;SDS011;16392;52.508;13.468;2022-11-20T10:53:37;365.57;;;68.53;;
8562;SDS011;16392;52.508;13.468;2022-11-20T10:56:12;361.70;;;64.50;;
8562;SDS011;16392;52.508;13.468;2022-11-20T10:58:45;359.70;;;64.43;;
8562;SDS011;16392;52.508;13.468;2022-11-20T11:01:21;363.07;;;65.43;;
8562;SDS011;16392;52.508;13.468;2022-11-20T11:03:50;362.37;;;67.53;;
8562;SDS011;16392;52.508;13.468;2022-11-20T11:06:19;362.83;;;63.40;;
8562;SDS011;16392;52.508;13.468;2022-11-20T11:08:53;363.53;;;66.70;;
8562;SDS011;16392;52.508;13.468;2022-11-20T11:11:25;361.33;;;62.33;;
8562;SDS011;16392;52.508;13.468;2022-11-20T11:14:03;363.30;;;62.67;;
8562;SDS011;16392;52.508;13.468;2022-11-20T11:16:31;370.87;;;65.20;;
8562;SDS011;16392;52.508;13.468;2022-11-20T11:19:06;367.83;;;62.43;;
8562;SDS011;16392;52.508;13.468;2022-11-20T11:21:38;370.50;;;66.00;;
8562;SDS011;16392;52.508;13.468;2022-11-20T11:24:14;375.77;;;64.70;;
8562;SDS011;16392;52.508;13.468;2022-11-20T11:26:50;372.23;;;62.40;;
8562;SDS011;16392;52.508;13.468;2022-11-20T11:29:22;373.07;;;65.43;;
8562;SDS011;16392;52.508;13.468;2022-11-20T11:32:02;372.27;;;61.00;;
8562;SDS011;16392;52.508;13.468;2022-11-20T11:34:32;373.07;;;63.27;;
8562;SDS011;16392;52.508;13.468;2022-11-20T11:37:00;374.10;;;61.73;;
8562;SDS011;16392;52.508;13.468;2022-11-20T11:39:29;372.23;;;62.07;;
8562;SDS011;16392;52.508;13.468;2022-11-20T11:41:58;370.93;;;62.57;;
8562;SDS011;16392;52.508;13.468;2022-11-20T11:44:43;374.33;;;61.73;;
8562;SDS011;16392;52.508;13.468;2022-11-20T11:47:32;373.60;;;68.53;;
8562;SDS011;16392;52.508;13.468;2022-11-20T11:50:07;373.00;;;63.47;;
8562;SDS011;16392;52.508;13.468;2022-11-20T11:52:43;370.50;;;61.50;;
8562;SDS011;16392;52.508;13.468;2022-11-20T11:55:16;369.60;;;62.20;;
8562;SDS011;16392;52.508;13.468;2022-11-20T11:57:52;369.77;;;61.70;;
8562;SDS011;16392;52.508;13.468;2022-11-20T12:00:26;373.30;;;64.20;;
8562;SDS011;16392;52.508;13.468;2022-11-20T12:02:55;374.60;;;71.47;;
8562;SDS011;16392;52.508;13.468;2022-11-20T12:05:32;372.23;;;63.97;;
8562;SDS011;16392;52.508;13.468;2022-11-20T12:08:05;368.63;;;62.60;;
8562;SDS011;16392;52.508;13.468;2022-11-20T12:10:40;367.90;;;62.57;;
8562;SDS011;16392;52.508;13.468;2022-11-20T12:13:15;368.43;;;62.90;;
8562;SDS011;16392;52.508;13.468;2022-11-20T12:15:48;365.87;;;61.40;;
8562;SDS011;16392;52.508;13.468;2022-11-20T12:18:16;365.47;;;62.33;;
8562;SDS011;16392;52.508;13.468;2022-11-20T12:20:48;366.00;;;65.53;;
8562;SDS011;16392;52.508;13.468;2022-11-20T12:23:28;362.47;;;61.07;;
8562;SDS011;16392;52.508;13.468;2022-11-20T12:26:12;363.40;;;63.40;;
8562;SDS011;16392;52.508;13.468;2022-11-20T12:28:48;368.10;;;68.60;;
8562;SDS011;16392;52.508;13.468;2022-11-20T12:31:30;365.83;;;62.17;;
8562;SDS011;16392;52.508;13.468;2022-11-20T12:34:13;364.37;;;61.10;;
8562;SDS011;16392;52.508;13.468;2022-11-20T12:36:52;366.10;;;66.67;;
8562;SDS011;16392;52.508;13.468;2022-11-20T12:39:27;367.17;;;61.97;;
8562;SDS011;16392;52.508;13.468;2022-11-20T12:42:05;367.80;;;64.03;;
8562;SDS011;16392;52.508;13.468;2022-11-20T12:45:06;367.33;;;65.03;;
8562;SDS011;16392;52.508;13.468;2022-11-20T12:48:10;368.00;;;63.67;;
8562;SDS011;16392;52.508;13.468;2022-11-20T12:51:03;363.53;;;62.20;;
8562;SDS011;16392;52.508;13.468;2022-11-20T12:53:43;365.17;;;63.93;;
8562;SDS011;16392;52.508;13.468;2022-11-20T12:56:22;364.73;;;64.10;;
8562;SDS011;16392;52.508;13.468;2022-11-20T12:58:59;365.60;;;64.60;;
8562;SDS011;16392;52.508;13.468;2022-11-20T13:01:34;365.67;;;71.50;;
8562;SDS011;16392;52.508;13.468;2022-11-20T13:04:08;362.10;;;61.30;;
8562;SDS011;16392;52.508;13.468;2022-11-20T13:06:44;366.90;;;72.93;;
8562;SDS011;16392;52.508;13.468;2022-11-20T13:09:14;363.30;;;61.97;;
8562;SDS011;16392;52.508;13.468;2022-11-20T13:11:44;360.80;;;61.30;;
8562;SDS011;16392;52.508;13.468;2022-11-20T13:14:20;363.83;;;62.17;;
8562;SDS011;16392;52.508;13.468;2022-11-20T13:16:54;362.77;;;61.27;;
8562;SDS011;16392;52.508;13.468;2022-11-20T13:19:27;361.77;;;61.43;;
8562;SDS011;16392;52.508;13.468;2022-11-20T13:21:55;361.90;;;61.17;;
8562;SDS011;16392;52.508;13.468;2022-11-20T13:24:26;363.03;;;61.40;;
8562;SDS011;16392;52.508;13.468;2022-11-20T13:27:05;367.63;;;63.93;;
8562;SDS011;16392;52.508;13.468;2022-11-20T13:29:45;365.30;;;63.63;;
8562;SDS011;16392;52.508;13.468;2022-11-20T13:32:14;368.83;;;62.50;;
8562;SDS011;16392;52.508;13.468;2022-11-20T13:34:50;366.80;;;60.80;;
8562;SDS011;16392;52.508;13.468;2022-11-20T13:37:24;369.87;;;63.27;;
8562;SDS011;16392;52.508;13.468;2022-11-20T13:40:04;371.07;;;64.37;;
8562;SDS011;16392;52.508;13.468;2022-11-20T13:42:34;368.70;;;62.00;;
8562;SDS011;16392;52.508;13.468;2022-11-20T13:45:08;370.83;;;65.67;;
8562;SDS011;16392;52.508;13.468;2022-11-20T13:47:37;369.47;;;62.83;;
8562;SDS011;16392;52.508;13.468;2022-11-20T13:50:13;367.73;;;61.53;;
8562;SDS011;16392;52.508;13.468;2022-11-20T13:52:43;369.13;;;61.80;;
8562;SDS011;16392;52.508;13.468;2022-11-20T13:55:21;375.03;;;64.07;;
8562;SDS011;16392;52.508;13.468;2022-11-20T13:58:04;370.03;;;63.33;;
8562;SDS011;16392;52.508;13.468;2022-11-20T14:00:47;370.30;;;62.23;;
8562;SDS011;16392;52.508;13.468;2022-11-20T14:03:18;368.90;;;61.77;;
8562;SDS011;16392;52.508;13.468;2022-11-20T14:05:49;371.70;;;63.63;;
8562;SDS011;16392;52.508;13.468;2022-11-20T14:08:25;370.27;;;62.50;;
8562;SDS011;16392;52.508;13.468;2022-11-20T14:11:11;369.43;;;62.97;;
8562;SDS011;16392;52.508;13.468;2022-11-20T14:13:50;369.60;;;63.30;;
8562;SDS011;16392;52.508;13.468;2022-11-20T14:16:19;366.57;;;61.23;;
8562;SDS011;16392;52.508;13.468;2022-11-20T14:18:46;368.97;;;62.33;;
8562;SDS011;16392;52.508;13.468;2022-11-20T14:21:20;370.70;;;66.53;;
8562;SDS011;16392;52.508;13.468;2022-11-20T14:23:48;369.03;;;61.63;;
8562;SDS011;16392;52.508;13.468;2022-11-20T14:26:16;368.70;;;62.53;;
8562;SDS011;16392;52.508;13.468;2022-11-20T14:28:47;369.97;;;62.67;;
8562;SDS011;16392;52.508;13.468;2022-11-20T14:31:17;367.73;;;61.83;;
8562;SDS011;16392;52.508;13.468;2022-11-20T14:33:48;366.97;;;62.30;;
8562;SDS011;16392;52.508;13.468;2022-11-20T14:36:16;370.60;;;68.93;;
8562;SDS011;16392;52.508;13.468;2022-11-20T14:38:44;366.23;;;62.33;;
8562;SDS011;16392;52.508;13.468;2022-11-20T14:41:16;364.53;;;61.27;;